Startpagina
METAR-TAF:

METAR-TAF

Vliegvelden :

Pietersburg, Zuid-Afrika

breedte: 23-50-43S, lengte: 29-27-31E, hoogte: 1242 m

Actueel weer

Dit bericht is 56 minuten geleden gemaakt, om 22:00 UTC
Wind 2 kt uit het zuidoosten
Temperatuur 11°C
Vochtigheid 50%
Druk 1031 hPa

METAR: FAPP 182200Z AUTO 14002KT //// // ////// 11/01 Q1031

Tijdstip: 00:56 (22:56 UTC)

Verwachting

Dit bericht is 8 uur en het 26 minuten geleden gemaakt, om 14:30 UTC
Verwachting geldig van 18 om 10 UTC tot 18 om 18 UTC
Wind 7 kt uit het oosten
Zicht 10 km of meer
geen wolken onder 1500 m en geen cumulonimbus

TAF: FAPP 181430Z 1810/1818 09007KT CAVOK TX22/1814Z TN13/1818Z

Waarnemingen en weersverwachtingen van meer dan 4000 vliegvelden (METAR en TAF).

De beschikbare stations zijn de gele en rode punten op de kaart.

Ga met uw muis naar het station om de naam te zien.

Klik dan om waarnemingen en weersverwachtingen te zien.

kaart wijzigen: klik op de groene knoppen met een zwart kruis om in te zoomen, op de groene knop met een streepje om uit te zoomen of op de groene pijlen voor aangrenzende kaarten.


METAR-TAF: